Time;durP1;ratioP1;P1;durP2;ratioP2;P2;SDS_P1;SDS_P2;PMS_P1;PMS_P2;Temp;Humidity;BMP_temperature;BMP_pressure;BME280_temperature;BME280_humidity;BME280_pressure;Samples;Min_cycle;Max_cycle;Signal;HPM_P1;HPM_P2
2022/05/05 00:02:28;;;;;;;1.40;0.20;;;;;;;6.14;43.22;100997.17;1722749;82;21098;-70
2022/05/05 00:04:57;;;;;;;1.23;0.37;;;;;;;6.10;43.51;100998.41;1722755;82;21621;-69
2022/05/05 00:07:24;;;;;;;1.63;0.37;;;;;;;5.99;43.93;100997.25;1722795;82;21081;-70
2022/05/05 00:09:50;;;;;;;1.00;0.55;;;;;;;5.92;44.00;100998.78;1722649;82;21072;-69
2022/05/05 00:15:01;;;;;;;1.70;0.60;;;;;;;5.84;44.03;101003.46;1704656;82;21186;-69
2022/05/05 00:17:27;;;;;;;0.93;0.30;;;;;;;5.78;44.50;101008.83;1722661;82;21176;-69
2022/05/05 00:19:53;;;;;;;2.27;0.33;;;;;;;5.77;44.44;101016.90;1722735;82;21040;-69
2022/05/05 00:22:20;;;;;;;1.47;0.25;;;;;;;5.74;44.45;101014.52;1722969;82;21044;-71
2022/05/05 00:24:46;;;;;;;0.87;0.27;;;;;;;5.75;44.38;101022.33;1722539;82;21048;-70
2022/05/05 00:27:12;;;;;;;2.77;0.30;;;;;;;5.74;44.53;101020.64;1722559;83;21154;-69
2022/05/05 00:29:38;;;;;;;4.62;0.40;;;;;;;5.74;44.82;101025.10;1722927;82;21025;-69
2022/05/05 00:32:07;;;;;;;1.70;0.30;;;;;;;5.74;44.69;101027.75;1721820;82;21018;-70
2022/05/05 00:34:35;;;;;;;0.60;0.40;;;;;;;5.73;44.55;101034.03;1722600;82;21010;-69
2022/05/05 00:37:01;;;;;;;0.40;0.30;;;;;;;5.71;44.69;101031.98;1722458;82;21569;-70
2022/05/05 00:39:27;;;;;;;0.70;0.30;;;;;;;5.68;44.91;101034.43;1722460;82;21006;-69
2022/05/05 00:41:53;;;;;;;1.10;0.28;;;;;;;5.68;44.71;101037.57;1722993;83;21035;-70
2022/05/05 00:44:19;;;;;;;1.37;0.35;;;;;;;5.60;45.11;101036.95;1737367;82;21512;-69
2022/05/05 00:46:51;;;;;;;2.20;0.30;;;;;;;5.55;45.14;101041.81;1726920;82;21006;-69
2022/05/05 00:49:18;;;;;;;2.03;0.33;;;;;;;5.54;44.91;101043.63;1722465;83;21065;-69
2022/05/05 00:51:45;;;;;;;0.73;0.40;;;;;;;5.51;45.23;101043.89;1722462;83;21046;-70
2022/05/05 00:54:11;;;;;;;1.73;0.43;;;;;;;5.46;45.38;101042.14;1722850;82;21137;-70
2022/05/05 00:56:38;;;;;;;1.50;0.40;;;;;;;5.43;45.50;101041.11;1722839;82;21034;-71
2022/05/05 00:59:05;;;;;;;;;;;;;;;5.40;45.35;101044.84;1725314;82;21074;-69
2022/05/05 01:01:34;;;;;;;1.72;0.40;;;;;;;5.38;45.44;101045.47;1722665;83;20239;-70
2022/05/05 01:04:01;;;;;;;2.00;0.30;;;;;;;5.29;46.02;101049.42;1722528;82;20979;-70
2022/05/05 01:06:30;;;;;;;0.97;0.30;;;;;;;5.26;46.05;101052.70;1721548;82;21030;-69
2022/05/05 01:08:57;;;;;;;1.93;0.43;;;;;;;5.23;45.84;101046.34;1722700;82;22238;-67
2022/05/05 01:11:24;;;;;;;1.87;0.77;;;;;;;5.23;46.33;101054.77;1722098;83;21125;-70
2022/05/05 01:13:51;;;;;;;0.63;0.40;;;;;;;5.21;46.27;101054.90;1719677;83;22076;-68
2022/05/05 01:16:18;;;;;;;2.30;0.50;;;;;;;5.19;46.26;101062.62;1722741;82;21084;-68
2022/05/05 01:18:44;;;;;;;;;;;;;;;5.15;46.30;101052.80;1725279;82;21018;-68
2022/05/05 01:21:11;;;;;;;0.60;0.20;;;;;;;5.14;46.44;101060.87;1681068;85;20166;-67
2022/05/05 01:23:39;;;;;;;1.37;0.40;;;;;;;5.09;46.82;101064.42;1663454;85;20970;-68
2022/05/05 01:28:52;;;;;;;0.60;0.50;;;;;;;5.03;46.83;101061.83;1722700;82;21053;-71
2022/05/05 01:31:19;;;;;;;1.17;0.40;;;;;;;4.97;47.24;101064.98;1740259;82;21071;-68
2022/05/05 01:33:47;;;;;;;3.13;0.47;;;;;;;4.93;47.31;101073.66;1724400;82;21049;-68
2022/05/05 01:36:14;;;;;;;0.90;0.40;;;;;;;4.91;47.15;101069.00;1723133;82;21054;-69
2022/05/05 01:38:41;;;;;;;5.67;0.85;;;;;;;4.88;47.80;101064.00;1722675;83;21014;-68
2022/05/05 01:41:11;;;;;;;0.80;0.70;;;;;;;4.83;47.82;101072.31;1702866;82;21055;-70
2022/05/05 01:43:39;;;;;;;0.87;0.43;;;;;;;4.75;48.21;101077.43;1722807;83;21010;-69
2022/05/05 01:46:07;;;;;;;0.90;0.30;;;;;;;4.72;48.45;101073.72;1722487;82;20982;-69
2022/05/05 01:48:34;;;;;;;2.50;0.40;;;;;;;4.68;48.58;101074.96;1722366;83;21121;-68
2022/05/05 01:51:02;;;;;;;1.43;0.50;;;;;;;4.62;48.93;101075.49;1721867;82;21558;-68
2022/05/05 01:53:36;;;;;;;1.13;0.40;;;;;;;4.62;48.54;101072.85;1722836;83;21041;-70
2022/05/05 01:55:56;;;;;;;1.33;0.53;;;;;;;4.57;49.25;101078.51;1720873;82;21081;-70
2022/05/05 01:58:23;;;;;;;3.30;0.60;;;;;;;4.54;49.29;101072.66;1722697;82;21002;-68
2022/05/05 02:00:49;;;;;;;1.65;0.35;;;;;;;4.47;49.70;101077.14;1723067;83;21002;-69
2022/05/05 02:03:16;;;;;;;2.47;0.33;;;;;;;4.46;49.82;101088.69;1722584;82;21085;-68
2022/05/05 02:05:44;;;;;;;;;;;;;;;4.45;49.75;101081.72;1725204;83;21062;-68
2022/05/05 02:08:11;;;;;;;;;;;;;;;4.40;49.98;101091.83;1725539;83;20136;-68
2022/05/05 02:10:38;;;;;;;0.60;0.30;;;;;;;4.32;50.20;101090.33;1722775;82;20207;-69
2022/05/05 02:13:08;;;;;;;0.73;0.43;;;;;;;4.21;50.48;101089.07;1705627;82;21076;-69
2022/05/05 02:15:35;;;;;;;2.23;0.40;;;;;;;4.21;50.38;101104.41;1697625;83;21360;-68
2022/05/05 02:18:10;;;;;;;4.62;0.50;;;;;;;4.10;50.51;101095.23;1715469;82;21462;-68
2022/05/05 02:20:40;;;;;;;1.13;0.30;;;;;;;4.17;50.47;101100.36;1705738;82;21022;-70
2022/05/05 02:23:08;;;;;;;0.77;0.33;;;;;;;4.15;50.75;101106.25;1705986;83;21029;-69
2022/05/05 02:25:35;;;;;;;3.27;0.50;;;;;;;4.13;50.67;101108.19;1697814;83;21053;-70
2022/05/05 02:28:02;;;;;;;0.30;0.30;;;;;;;4.14;50.66;101111.65;1717370;83;21062;-69
2022/05/05 02:30:29;;;;;;;1.87;0.70;;;;;;;4.10;50.97;101115.84;1716461;83;21092;-70
2022/05/05 02:32:56;;;;;;;0.77;0.60;;;;;;;4.09;50.95;101118.64;1706323;83;21071;-69
2022/05/05 02:35:24;;;;;;;3.47;0.30;;;;;;;4.07;50.99;101121.40;1722181;82;21039;-69
2022/05/05 02:40:36;;;;;;;0.67;0.53;;;;;;;4.12;50.60;101128.09;1722020;82;21184;-69
2022/05/05 02:43:04;;;;;;;0.75;0.37;;;;;;;4.13;50.88;101127.14;1722651;82;21022;-69
2022/05/05 02:45:31;;;;;;;1.30;0.50;;;;;;;4.13;50.81;101129.78;1724123;82;21094;-69
2022/05/05 02:47:58;;;;;;;1.02;0.50;;;;;;;4.16;50.67;101135.61;1726027;82;21534;-70
2022/05/05 02:50:25;;;;;;;2.70;1.10;;;;;;;4.24;50.99;101132.37;1720938;82;21086;-69
2022/05/05 02:54:52;;;;;;;2.83;0.50;;;;;;;4.76;50.19;101133.72;1818570;79;23444;-70
2022/05/05 02:57:23;;;;;;;4.70;0.40;;;;;;;5.06;49.41;101141.64;1717889;80;21529;-69
2022/05/05 02:59:51;;;;;;;0.40;0.30;;;;;;;5.43;48.59;101146.38;1666618;84;21037;-69
2022/05/05 03:02:17;;;;;;;0.50;0.40;;;;;;;5.82;47.58;101142.50;1679499;82;21055;-68
2022/05/05 03:04:44;;;;;;;2.77;0.50;;;;;;;6.11;46.91;101146.99;1677109;84;21089;-69
2022/05/05 03:07:10;;;;;;;0.60;0.50;;;;;;;6.40;46.00;101140.38;1676394;84;21045;-69
2022/05/05 03:09:36;;;;;;;0.72;0.40;;;;;;;6.62;45.23;101143.66;1628732;87;21063;-70
2022/05/05 03:12:04;;;;;;;0.70;0.42;;;;;;;6.87;45.07;101148.00;1628918;87;21603;-69
2022/05/05 03:14:30;;;;;;;0.97;0.50;;;;;;;7.20;44.32;101151.42;1622266;87;21007;-69
2022/05/05 03:16:58;;;;;;;0.83;0.40;;;;;;;7.61;43.28;101148.44;1677630;84;21044;-69
2022/05/05 03:19:26;;;;;;;1.10;0.70;;;;;;;7.88;42.64;101151.53;1677806;84;22378;-71
2022/05/05 03:21:57;;;;;;;2.73;0.70;;;;;;;8.12;42.16;101151.44;1659713;84;21068;-70
2022/05/05 03:24:24;;;;;;;2.53;0.87;;;;;;;8.38;41.48;101150.98;1673928;84;21113;-70
2022/05/05 03:26:50;;;;;;;0.95;0.30;;;;;;;8.69;40.90;101155.06;1677449;84;21015;-71
2022/05/05 03:29:16;;;;;;;;;;;;;;;8.89;40.17;101153.86;1680042;84;21078;-71
2022/05/05 03:31:42;;;;;;;0.47;0.47;;;;;;;9.02;40.16;101158.73;1676059;84;20115;-71
2022/05/05 03:34:09;;;;;;;4.78;0.90;;;;;;;9.23;39.71;101157.50;1647615;86;21586;-71
2022/05/05 03:36:36;;;;;;;3.23;0.93;;;;;;;9.61;38.70;101171.31;1677528;85;21196;-70
2022/05/05 03:39:02;;;;;;;1.25;0.60;;;;;;;9.82;38.22;101169.03;1677366;84;20995;-71
2022/05/05 03:41:28;;;;;;;0.72;0.37;;;;;;;10.03;37.53;101171.73;1677626;84;21573;-71
2022/05/05 03:43:55;;;;;;;;;;;;;;;10.23;37.46;101173.59;1679992;84;21605;-70
2022/05/05 03:46:21;;;;;;;0.30;0.30;;;;;;;10.45;37.29;101178.30;1674761;84;20136;-70
2022/05/05 03:48:47;;;;;;;1.40;0.47;;;;;;;10.80;36.57;101175.43;1674412;84;21044;-71
2022/05/05 03:51:14;;;;;;;2.47;0.85;;;;;;;11.12;35.98;101178.52;1674308;84;21074;-71
2022/05/05 03:53:40;;;;;;;1.77;0.60;;;;;;;11.30;35.25;101184.95;1674567;84;22308;-69
2022/05/05 03:56:06;;;;;;;;;;;;;;;11.42;35.12;101186.25;1681597;83;21606;-70
2022/05/05 03:58:32;;;;;;;1.33;0.40;;;;;;;11.70;34.30;101188.47;1684509;84;20188;-71
2022/05/05 04:00:58;;;;;;;1.30;0.42;;;;;;;12.06;34.35;101195.97;1697985;83;21121;-71
2022/05/05 04:03:30;;;;;;;2.22;0.42;;;;;;;12.56;33.46;101188.41;1714311;83;21572;-72
2022/05/05 04:06:04;;;;;;;0.93;0.35;;;;;;;13.13;32.63;101197.22;1668245;85;21018;-71
2022/05/05 04:08:33;;;;;;;1.47;0.50;;;;;;;13.48;32.08;101191.32;1676390;85;21069;-70
2022/05/05 04:11:01;;;;;;;1.25;0.50;;;;;;;13.94;31.41;101191.88;1685307;85;21674;-71
2022/05/05 04:13:27;;;;;;;4.40;0.40;;;;;;;14.57;30.45;101192.08;1697279;83;21043;-72
2022/05/05 04:15:53;;;;;;;0.95;0.50;;;;;;;15.01;29.21;101202.20;1715457;83;21073;-71
2022/05/05 04:18:20;;;;;;;0.40;0.20;;;;;;;15.06;28.43;101190.38;1705652;83;21058;-72
2022/05/05 04:20:47;;;;;;;;;;;;;;;15.03;28.70;101191.28;1725065;82;21042;-71
2022/05/05 04:23:13;;;;;;;1.65;0.85;;;;;;;15.21;28.26;101209.05;1693558;83;20161;-72
2022/05/05 04:25:41;;;;;;;0.65;0.37;;;;;;;15.46;28.23;101201.84;1677466;85;21068;-71
2022/05/05 04:28:10;;;;;;;0.37;0.35;;;;;;;15.53;27.72;101198.69;1669849;86;21062;-71
2022/05/05 04:30:38;;;;;;;0.75;0.37;;;;;;;15.57;27.84;101209.34;1677519;85;21153;-72
2022/05/05 04:33:05;;;;;;;0.55;0.40;;;;;;;15.62;27.11;101204.73;1668728;85;21011;-72
2022/05/05 04:35:33;;;;;;;0.80;0.40;;;;;;;15.48;27.45;101214.08;1668543;85;21059;-71
2022/05/05 04:37:59;;;;;;;1.07;0.40;;;;;;;15.63;27.28;101207.19;1677230;85;21101;-70
2022/05/05 04:40:25;;;;;;;1.22;0.47;;;;;;;15.82;26.79;101207.50;1666887;85;21051;-71
2022/05/05 04:42:51;;;;;;;0.85;0.60;;;;;;;15.88;26.55;101202.66;1669416;84;21382;-71
2022/05/05 04:45:18;;;;;;;2.62;0.47;;;;;;;16.06;26.25;101212.33;1673733;84;21392;-71
2022/05/05 04:47:44;;;;;;;0.47;0.20;;;;;;;16.16;26.42;101206.55;1684350;85;21593;-71
2022/05/05 04:50:11;;;;;;;0.35;0.20;;;;;;;16.13;26.33;101201.08;1669648;86;21577;-72
2022/05/05 04:52:38;;;;;;;0.28;0.10;;;;;;;15.96;26.35;101219.44;1653565;87;21089;-71
2022/05/05 04:55:04;;;;;;;3.20;0.35;;;;;;;15.81;26.68;101220.13;1668527;84;21051;-73
2022/05/05 04:57:31;;;;;;;0.60;0.33;;;;;;;16.20;26.60;101209.17;1672911;85;21576;-72
2022/05/05 04:59:59;;;;;;;0.62;0.20;;;;;;;16.69;26.06;101209.83;1657391;84;21003;-73
2022/05/05 05:02:26;;;;;;;1.25;0.20;;;;;;;17.06;25.36;101208.34;1709748;83;21605;-71
2022/05/05 05:04:52;;;;;;;;;;;;;;;17.41;24.91;101213.98;1725419;83;21090;-73
2022/05/05 05:07:18;;;;;;;1.37;0.30;;;;;;;17.44;24.74;101215.74;1725178;83;20184;-72
2022/05/05 05:09:46;;;;;;;1.12;0.20;;;;;;;17.60;24.54;101217.65;1722953;83;21035;-71
2022/05/05 05:12:12;;;;;;;0.60;0.25;;;;;;;17.89;24.25;101209.55;1716458;83;21030;-71
2022/05/05 05:14:38;;;;;;;;;;;;;;;18.11;23.97;101214.62;1716610;82;21062;-71
2022/05/05 05:17:04;;;;;;;1.05;0.30;;;;;;;18.24;23.59;101230.73;1725346;82;20144;-72
2022/05/05 05:19:31;;;;;;;0.40;0.40;;;;;;;18.20;23.18;101228.17;1725202;82;21109;-72
2022/05/05 05:21:57;;;;;;;1.05;0.47;;;;;;;17.91;23.51;101230.38;1725232;83;21078;-73
2022/05/05 05:24:23;;;;;;;0.45;0.30;;;;;;;17.65;23.66;101222.70;1677060;85;21116;-72
2022/05/05 05:26:49;;;;;;;;;;;;;;;17.46;24.09;101242.45;1671178;85;21130;-72
2022/05/05 05:29:16;;;;;;;0.47;0.30;;;;;;;17.42;24.20;101247.97;1706205;84;20604;-70
2022/05/05 05:31:43;;;;;;;0.68;0.35;;;;;;;17.31;24.04;101249.47;1677553;84;21138;-73
2022/05/05 05:34:09;;;;;;;0.50;0.23;;;;;;;17.23;24.32;101242.41;1704389;83;21105;-72
2022/05/05 05:36:36;;;;;;;0.82;0.35;;;;;;;17.20;24.45;101251.45;1720774;83;21113;-74
2022/05/05 05:39:02;;;;;;;0.70;0.30;;;;;;;17.15;24.47;101242.63;1720949;83;21070;-72
2022/05/05 05:41:28;;;;;;;0.68;0.50;;;;;;;17.07;24.38;101260.37;1712816;83;21510;-71
2022/05/05 05:43:55;;;;;;;3.77;0.37;;;;;;;17.09;24.66;101243.48;1691813;83;21085;-72
2022/05/05 05:46:21;;;;;;;2.00;0.30;;;;;;;17.10;24.63;101248.66;1671675;85;21074;-73
2022/05/05 05:48:47;;;;;;;4.40;0.45;;;;;;;17.18;24.64;101249.46;1722262;83;20992;-73
2022/05/05 05:51:14;;;;;;;2.92;0.75;;;;;;;17.13;24.80;101239.33;1707774;84;21073;-72
2022/05/05 05:53:40;;;;;;;0.78;0.60;;;;;;;16.97;25.28;101244.64;1678438;84;21600;-71
2022/05/05 05:56:06;;;;;;;0.40;0.20;;;;;;;16.88;24.92;101248.58;1704013;83;21190;-73
2022/05/05 05:58:38;;;;;;;1.55;0.40;;;;;;;16.75;25.18;101249.38;1703599;84;21913;-72
2022/05/05 06:01:06;;;;;;;0.50;0.50;;;;;;;16.81;24.95;101247.72;1669788;84;21048;-72
2022/05/05 06:03:53;;;;;;;1.67;0.47;;;;;;;16.95;24.77;101260.68;1663099;85;21143;-72
2022/05/05 06:06:21;;;;;;;2.35;0.30;;;;;;;16.85;25.12;101257.88;1669488;85;21370;-75
2022/05/05 06:08:48;;;;;;;1.12;0.40;;;;;;;16.73;24.99;101253.61;1661697;85;21043;-74
2022/05/05 06:11:21;;;;;;;0.60;0.20;;;;;;;16.73;25.50;101247.41;1675780;84;21086;-73
2022/05/05 06:13:47;;;;;;;0.20;0.20;;;;;;;16.86;24.95;101263.59;1675917;85;21638;-73
2022/05/05 06:16:13;;;;;;;2.00;0.62;;;;;;;16.79;24.87;101251.95;1651097;84;21109;-72
2022/05/05 06:18:42;;;;;;;0.40;0.20;;;;;;;16.76;24.70;101257.75;1676769;85;21095;-73
2022/05/05 06:21:08;;;;;;;1.15;0.10;;;;;;;16.85;24.42;101257.88;1676376;84;21084;-72
2022/05/05 06:23:37;;;;;;;1.15;0.30;;;;;;;16.81;24.35;101245.84;1676270;85;21029;-72
2022/05/05 06:26:02;;;;;;;2.10;0.50;;;;;;;16.68;24.88;101256.61;1689278;85;21036;-75
2022/05/05 06:28:28;;;;;;;;;;;;;;;16.57;24.55;101254.53;1692352;85;21567;-72
2022/05/05 06:30:56;;;;;;;1.75;0.40;;;;;;;16.47;24.63;101254.41;1688795;85;20139;-72
2022/05/05 06:33:23;;;;;;;3.12;0.20;;;;;;;16.32;24.65;101260.50;1689818;85;21196;-74
2022/05/05 06:35:49;;;;;;;0.17;0.10;;;;;;;16.21;24.40;101261.09;1689369;85;21091;-73
2022/05/05 06:38:16;;;;;;;0.72;0.45;;;;;;;16.09;24.78;101260.86;1679692;85;21143;-71
2022/05/05 06:40:45;;;;;;;0.40;0.10;;;;;;;16.12;24.42;101268.51;1661096;85;21092;-73
2022/05/05 06:43:11;;;;;;;1.12;0.25;;;;;;;16.19;24.21;101259.12;1673233;85;21607;-72
2022/05/05 06:45:37;;;;;;;1.85;0.35;;;;;;;16.29;24.22;101271.66;1699813;83;21498;-73
2022/05/05 06:48:04;;;;;;;0.30;0.30;;;;;;;16.32;23.07;101269.91;1686270;84;21041;-72
2022/05/05 06:50:31;;;;;;;3.05;0.40;;;;;;;16.05;23.10;101294.55;1699835;83;22128;-73
2022/05/05 06:53:00;;;;;;;3.37;0.23;;;;;;;15.87;23.98;101269.56;1718615;83;21031;-74
2022/05/05 06:55:25;;;;;;;2.17;0.33;;;;;;;15.90;23.56;101270.52;1697016;83;21057;-73
2022/05/05 06:57:52;;;;;;;1.20;0.20;;;;;;;15.85;23.71;101274.31;1718860;83;21590;-71
2022/05/05 07:00:18;;;;;;;0.50;0.20;;;;;;;15.89;23.37;101277.73;1718369;83;21078;-72
2022/05/05 07:02:45;;;;;;;1.45;0.60;;;;;;;16.14;22.95;101283.92;1718428;83;21118;-72
2022/05/05 07:05:23;;;;;;;0.70;0.28;;;;;;;16.18;22.62;101281.66;1699656;83;21085;-71
2022/05/05 07:07:51;;;;;;;0.95;0.20;;;;;;;15.96;22.37;101298.77;1718297;83;21062;-73
2022/05/05 07:13:04;;;;;;;0.75;0.40;;;;;;;15.99;22.43;101289.98;1713190;83;21088;-74
2022/05/05 07:15:31;;;;;;;0.20;0.20;;;;;;;15.85;23.02;101303.36;1718464;83;21562;-73
2022/05/05 07:17:57;;;;;;;0.82;0.53;;;;;;;15.76;23.59;101289.28;1718967;83;21015;-73
2022/05/05 07:20:24;;;;;;;;;;;;;;;15.47;24.08;101288.97;1721177;83;21054;-75
2022/05/05 07:22:53;;;;;;;1.33;0.27;;;;;;;15.20;24.20;101281.27;1707721;83;20127;-72
2022/05/05 07:25:20;;;;;;;0.55;0.20;;;;;;;14.91;25.03;101284.95;1661415;85;21130;-72
2022/05/05 07:27:46;;;;;;;0.30;0.10;;;;;;;14.66;24.83;101284.53;1665207;85;21050;-72
2022/05/05 07:30:15;;;;;;;0.35;0.35;;;;;;;14.47;25.16;101284.11;1688488;85;21074;-70
2022/05/05 07:32:42;;;;;;;0.55;0.20;;;;;;;14.33;25.39;101294.37;1686540;85;21383;-71
2022/05/05 07:35:11;;;;;;;1.47;0.45;;;;;;;14.17;25.44;101287.39;1660889;85;21060;-71
2022/05/05 07:38:43;;;;;;;1.55;0.28;;;;;;;13.94;25.97;101284.86;1685654;84;21012;-72
2022/05/05 07:41:10;;;;;;;1.47;0.20;;;;;;;13.76;26.31;101283.90;1685267;85;20989;-72
2022/05/05 07:43:37;;;;;;;0.75;0.20;;;;;;;13.62;26.31;101301.66;1679851;84;21263;-71
2022/05/05 07:46:03;;;;;;;0.90;0.30;;;;;;;13.48;26.56;101290.42;1685214;85;21094;-73
2022/05/05 07:48:29;;;;;;;1.17;0.40;;;;;;;13.36;26.49;101297.56;1685233;84;21027;-73
2022/05/05 07:50:55;;;;;;;2.47;0.20;;;;;;;13.31;26.64;101298.61;1684738;85;21122;-72
2022/05/05 07:53:22;;;;;;;0.78;0.30;;;;;;;13.28;26.55;101294.95;1684956;85;21011;-72
2022/05/05 07:55:48;;;;;;;1.60;0.45;;;;;;;13.24;26.49;101308.35;1684302;85;21022;-71
2022/05/05 07:58:14;;;;;;;2.30;0.20;;;;;;;13.05;26.38;101285.61;1685302;85;21684;-70
2022/05/05 08:00:42;;;;;;;2.17;0.25;;;;;;;12.99;26.27;101289.84;1679365;84;21607;-71
2022/05/05 08:03:08;;;;;;;;;;;;;;;12.93;26.59;101278.53;1684114;85;21066;-73
2022/05/05 08:05:34;;;;;;;0.45;0.20;;;;;;;12.87;26.81;101269.89;1679281;85;20147;-71
2022/05/05 08:08:00;;;;;;;1.37;0.20;;;;;;;12.88;26.82;101280.09;1685111;84;21054;-70
2022/05/05 08:10:28;;;;;;;0.45;0.30;;;;;;;12.92;26.78;101278.23;1679580;85;21043;-71
2022/05/05 08:12:54;;;;;;;0.70;0.30;;;;;;;12.96;26.89;101267.48;1683191;85;21488;-72
2022/05/05 08:15:21;;;;;;;0.70;0.30;;;;;;;12.94;27.09;101277.53;1685162;85;21721;-70
2022/05/05 08:17:48;;;;;;;0.50;0.20;;;;;;;12.97;26.74;101281.16;1684734;85;21551;-70
2022/05/05 08:20:15;;;;;;;;;;;;;;;12.96;26.30;101286.21;1687477;85;21588;-72
2022/05/05 08:22:42;;;;;;;1.15;0.40;;;;;;;12.93;26.16;101274.52;1684955;84;20104;-71
2022/05/05 08:30:39;;;;;;;0.98;0.30;;;;;;;12.83;26.94;101276.63;1685210;85;21106;-69
2022/05/05 08:33:05;;;;;;;1.35;0.30;;;;;;;12.94;26.73;101287.38;1682227;84;21584;-70
2022/05/05 08:35:32;;;;;;;0.62;0.20;;;;;;;12.99;26.41;101276.98;1674143;85;21092;-72
2022/05/05 08:37:58;;;;;;;0.78;0.42;;;;;;;12.97;26.33;101279.00;1639291;86;21080;-71
2022/05/05 08:40:27;;;;;;;0.95;0.55;;;;;;;12.92;26.40;101263.50;1641368;87;21066;-72
2022/05/05 08:42:54;;;;;;;1.07;0.33;;;;;;;12.85;26.52;101264.72;1682587;85;21030;-71
2022/05/05 08:45:21;;;;;;;;;;;;;;;12.80;26.62;101260.41;1682606;85;22077;-72
2022/05/05 08:47:48;;;;;;;2.83;0.33;;;;;;;12.82;26.81;101265.07;1685639;85;20140;-71
2022/05/05 08:50:15;;;;;;;0.78;0.35;;;;;;;12.89;26.86;101277.23;1685773;84;22018;-67
2022/05/05 08:53:02;;;;;;;3.30;0.30;;;;;;;12.98;26.66;101270.80;1671312;86;21649;-71
2022/05/05 08:55:30;;;;;;;1.37;0.20;;;;;;;12.95;26.75;101264.98;1675530;84;21031;-71
2022/05/05 08:57:57;;;;;;;1.95;0.35;;;;;;;12.92;26.51;101270.20;1670581;85;21073;-69
2022/05/05 09:00:27;;;;;;;3.35;0.40;;;;;;;12.90;26.59;101284.23;1692198;84;21031;-70
2022/05/05 09:02:54;;;;;;;1.80;0.30;;;;;;;12.88;26.57;101264.86;1709899;83;21079;-70
2022/05/05 09:05:46;;;;;;;0.37;0.20;;;;;;;12.82;26.78;101264.25;1710096;83;21102;-71
2022/05/05 09:08:29;;;;;;;3.25;0.65;;;;;;;12.85;27.13;101263.90;1726265;83;21059;-72
2022/05/05 09:11:01;;;;;;;3.62;0.57;;;;;;;12.90;26.73;101264.68;1710415;82;21409;-71
2022/05/05 09:13:34;;;;;;;2.45;0.50;;;;;;;12.93;26.37;101258.98;1683467;84;21048;-70
2022/05/05 09:16:03;;;;;;;5.08;0.45;;;;;;;12.98;26.49;101269.47;1675229;85;22153;-71
2022/05/05 09:18:32;;;;;;;1.10;0.40;;;;;;;13.05;26.22;101267.73;1666122;85;21096;-72
2022/05/05 09:21:03;;;;;;;3.22;0.30;;;;;;;13.04;26.32;101258.02;1676469;84;21016;-72
2022/05/05 09:26:29;;;;;;;0.57;0.15;;;;;;;13.10;26.40;101263.67;1690222;85;21047;-71
2022/05/05 09:28:58;;;;;;;0.47;0.20;;;;;;;13.17;25.97;101261.94;1692074;85;20992;-70
2022/05/05 09:31:24;;;;;;;0.57;0.20;;;;;;;13.17;26.00;101253.91;1661685;85;21552;-71
2022/05/05 09:33:51;;;;;;;1.90;0.10;;;;;;;13.21;25.85;101261.89;1705605;82;21015;-71
2022/05/05 09:36:27;;;;;;;1.12;0.30;;;;;;;13.22;25.57;101264.38;1739116;82;21119;-70
2022/05/05 09:38:58;;;;;;;0.28;0.20;;;;;;;13.23;25.63;101258.52;1739493;82;21527;-71
2022/05/05 09:41:28;;;;;;;0.20;0.17;;;;;;;13.24;25.69;101258.34;1738953;82;21043;-71
2022/05/05 09:43:57;;;;;;;0.40;0.20;;;;;;;13.29;26.08;101258.29;1722320;82;20977;-70
2022/05/05 09:46:29;;;;;;;0.80;0.35;;;;;;;13.30;25.96;101259.94;1710985;82;21070;-70
2022/05/05 09:49:10;;;;;;;0.20;0.20;;;;;;;13.32;25.61;101255.28;1712832;82;21030;-70
2022/05/05 09:51:40;;;;;;;0.75;0.20;;;;;;;13.34;25.61;101259.95;1736948;82;21519;-70
2022/05/05 09:59:51;;;;;;;2.87;0.20;;;;;;;13.41;25.20;101253.67;1660758;86;21027;-71
2022/05/05 10:04:00;;;;;;;0.55;0.30;;;;;;;13.47;25.14;101250.76;1661652;85;21095;-74
2022/05/05 10:05:12;;;;;;;0.40;0.25;;;;;;;13.48;24.87;101238.19;1659912;85;21190;-71
2022/05/05 10:07:44;;;;;;;0.68;0.20;;;;;;;13.53;24.80;101256.70;1674221;85;21169;-70
2022/05/05 10:10:13;;;;;;;0.30;0.10;;;;;;;13.54;25.07;101258.88;1660811;85;21086;-72
2022/05/05 10:12:40;;;;;;;1.10;0.30;;;;;;;13.58;24.92;101264.17;1686737;83;21018;-70
2022/05/05 10:15:10;;;;;;;1.67;0.20;;;;;;;13.61;25.21;101247.73;1694704;83;21035;-72
2022/05/05 10:17:38;;;;;;;0.90;0.65;;;;;;;13.61;25.30;101243.20;1694919;85;21077;-71
2022/05/05 10:20:10;;;;;;;0.40;0.20;;;;;;;13.66;25.46;101261.94;1694855;83;21054;-71
2022/05/05 10:22:47;;;;;;;2.15;0.20;;;;;;;13.72;24.83;101255.30;1688647;83;21068;-72
2022/05/05 10:25:21;;;;;;;1.02;0.20;;;;;;;13.71;24.97;101252.32;1650169;85;21112;-71
2022/05/05 10:27:48;;;;;;;3.62;0.20;;;;;;;13.70;25.15;101239.92;1666199;85;21048;-70
2022/05/05 10:30:16;;;;;;;1.07;0.45;;;;;;;13.70;25.27;101260.54;1666983;85;21013;-71
2022/05/05 10:32:45;;;;;;;0.20;0.10;;;;;;;13.71;24.65;101257.68;1667272;85;21040;-72
2022/05/05 10:35:15;;;;;;;;;;;;;;;13.65;24.69;101242.33;1670097;84;21625;-71
2022/05/05 10:37:43;;;;;;;0.42;0.20;;;;;;;13.64;24.87;101242.02;1666591;85;20424;-70
2022/05/05 10:40:11;;;;;;;0.60;0.25;;;;;;;13.63;25.07;101237.67;1666660;85;21139;-70
2022/05/05 10:42:45;;;;;;;0.20;0.20;;;;;;;13.70;25.13;101234.56;1666813;84;21106;-73
2022/05/05 10:45:32;;;;;;;3.30;0.40;;;;;;;13.80;25.58;101235.09;1666514;83;21571;-71
2022/05/05 10:48:08;;;;;;;2.17;0.15;;;;;;;13.96;25.72;101234.58;1666524;85;21063;-73
2022/05/05 10:50:50;;;;;;;0.68;0.35;;;;;;;14.12;25.34;101232.98;1649825;86;21088;-71
2022/05/05 10:53:40;;;;;;;0.45;0.20;;;;;;;14.28;24.68;101237.78;1688162;84;21653;-71
2022/05/05 10:56:31;;;;;;;1.05;0.17;;;;;;;14.29;24.60;101234.91;1696458;83;21185;-72
2022/05/05 10:59:07;;;;;;;0.98;0.30;;;;;;;14.30;24.52;101233.91;1652969;85;21009;-70
2022/05/05 11:01:56;;;;;;;1.80;0.20;;;;;;;14.36;24.54;101228.29;1673439;84;20995;-72
2022/05/05 11:04:31;;;;;;;0.68;0.20;;;;;;;14.38;24.53;101231.61;1642639;86;21078;-72
2022/05/05 11:07:36;;;;;;;0.28;0.10;;;;;;;14.41;24.14;101241.97;1638381;86;21032;-72
2022/05/05 11:10:00;;;;;;;2.42;0.88;;;;;;;14.39;24.05;101229.23;1646022;86;21447;-70
2022/05/05 11:12:33;;;;;;;0.30;0.30;;;;;;;14.35;23.91;101240.87;1638985;86;21081;-71
2022/05/05 11:23:42;;;;;;;0.90;0.30;;;;;;;14.27;23.31;101228.91;1635337;86;22431;-71
2022/05/05 11:26:10;;;;;;;0.47;0.30;;;;;;;14.28;23.59;101224.38;1635926;87;21110;-71
2022/05/05 11:28:37;;;;;;;2.37;0.37;;;;;;;14.28;23.67;101218.52;1666898;84;21022;-70
2022/05/05 11:31:03;;;;;;;3.22;0.30;;;;;;;14.32;23.62;101221.13;1666829;85;21109;-71
2022/05/05 11:33:29;;;;;;;0.37;0.30;;;;;;;14.35;23.08;101223.45;1666800;85;21002;-71
2022/05/05 11:36:00;;;;;;;1.37;0.20;;;;;;;14.33;23.50;101220.09;1666690;85;21145;-71
2022/05/05 11:38:28;;;;;;;2.47;0.20;;;;;;;14.32;23.59;101221.66;1684633;84;21029;-72
2022/05/05 11:41:00;;;;;;;1.02;0.37;;;;;;;14.30;23.48;101224.52;1649321;84;21094;-71
2022/05/05 11:46:13;;;;;;;1.22;0.20;;;;;;;14.31;23.34;101214.62;1667200;84;21615;-72
2022/05/05 11:48:42;;;;;;;;;;;;;;;14.34;23.58;101211.56;1692282;84;21023;-71
2022/05/05 11:51:08;;;;;;;1.15;0.17;;;;;;;14.35;23.35;101217.23;1690004;84;20441;-72
2022/05/05 11:53:35;;;;;;;2.45;0.50;;;;;;;14.21;23.39;101210.91;1679588;84;21665;-72
2022/05/05 11:56:02;;;;;;;2.50;0.30;;;;;;;14.07;23.09;101209.96;1643096;87;21090;-72
2022/05/05 12:01:38;;;;;;;0.95;0.20;;;;;;;14.06;23.01;101207.47;1664770;85;21067;-72
2022/05/05 12:04:05;;;;;;;0.65;0.37;;;;;;;14.10;22.64;101200.70;1640354;87;21578;-70
2022/05/05 12:06:34;;;;;;;3.30;0.20;;;;;;;14.13;22.34;101190.94;1667931;85;21050;-71
2022/05/05 12:09:00;;;;;;;1.15;0.23;;;;;;;14.17;22.56;101184.99;1639476;86;21090;-72
2022/05/05 12:11:28;;;;;;;0.40;0.20;;;;;;;14.25;22.63;101197.44;1634237;87;21100;-72
2022/05/05 12:14:07;;;;;;;6.03;0.30;;;;;;;14.30;22.69;101188.84;1634292;87;21114;-72
2022/05/05 12:16:36;;;;;;;0.30;0.13;;;;;;;14.35;23.02;101194.44;1646609;85;21068;-71
2022/05/05 12:19:18;;;;;;;1.47;0.30;;;;;;;14.40;22.88;101186.65;1659962;85;21061;-71
2022/05/05 12:21:54;;;;;;;1.10;0.20;;;;;;;14.44;23.05;101197.30;1643142;87;21118;-71